createdAt,value
2022-12-24T00:02:02.986Z,101134.13
2022-12-24T00:04:42.705Z,101118.63
2022-12-24T00:07:24.115Z,101112.50
2022-12-24T00:10:03.994Z,101114.19
2022-12-24T00:12:43.739Z,101112.16
2022-12-24T00:15:23.495Z,101104.38
2022-12-24T00:18:03.468Z,101110.72
2022-12-24T00:20:43.112Z,101127.38
2022-12-24T00:23:24.940Z,101126.44
2022-12-24T00:26:06.084Z,101125.47
2022-12-24T00:28:43.882Z,101121.16
2022-12-24T00:31:24.190Z,101103.75
2022-12-24T00:34:05.353Z,101106.03
2022-12-24T00:36:45.136Z,101111.97
2022-12-24T00:39:25.023Z,101111.56
2022-12-24T00:42:02.862Z,101122.72
2022-12-24T00:44:42.972Z,101126.97
2022-12-24T00:47:20.867Z,101130.31
2022-12-24T00:50:03.044Z,101127.91
2022-12-24T00:52:44.610Z,101110.38
2022-12-24T00:55:27.500Z,101118.94
2022-12-24T00:58:08.376Z,101128.28
2022-12-24T01:00:48.208Z,101133.44
2022-12-24T01:03:35.230Z,101138.72
2022-12-24T01:06:14.935Z,101133.44
2022-12-24T01:08:55.707Z,101144.63
2022-12-24T01:11:35.444Z,101145.69
2022-12-24T01:14:17.245Z,101156.00
2022-12-24T01:16:58.329Z,101147.59
2022-12-24T01:19:38.062Z,101168.47
2022-12-24T01:22:17.911Z,101177.13
2022-12-24T01:24:59.715Z,101168.25
2022-12-24T01:27:40.703Z,101174.47
2022-12-24T01:30:20.496Z,101177.84
2022-12-24T01:33:05.733Z,101158.03
2022-12-24T01:35:47.709Z,101158.44
2022-12-24T01:38:28.050Z,101163.59
2022-12-24T01:41:50.166Z,101167.94
2022-12-24T01:44:37.054Z,101163.50
2022-12-24T01:47:21.485Z,101166.88
2022-12-24T01:50:03.010Z,101162.31
2022-12-24T01:52:44.196Z,101164.97
2022-12-24T01:55:24.450Z,101163.75
2022-12-24T01:58:04.914Z,101170.72
2022-12-24T02:00:45.695Z,101183.94
2022-12-24T02:03:33.072Z,101186.56
2022-12-24T02:06:18.061Z,101199.75
2022-12-24T02:08:57.872Z,101203.34
2022-12-24T02:11:41.192Z,101200.50
2022-12-24T02:14:22.237Z,101203.19
2022-12-24T02:17:03.581Z,101189.75
2022-12-24T02:19:56.744Z,101185.50
2022-12-24T02:22:41.336Z,101174.56
2022-12-24T02:25:26.216Z,101171.34
2022-12-24T02:28:07.777Z,101173.56
2022-12-24T02:30:48.904Z,101176.19
2022-12-24T02:33:29.949Z,101178.16
2022-12-24T02:36:14.150Z,101170.94
2022-12-24T02:38:55.786Z,101159.44
2022-12-24T02:41:54.006Z,101156.09
2022-12-24T02:44:35.321Z,101152.84
2022-12-24T02:47:16.101Z,101159.56
2022-12-24T02:49:57.299Z,101177.47
2022-12-24T02:52:37.830Z,101178.69
2022-12-24T02:55:19.128Z,101194.28
2022-12-24T02:58:07.508Z,101204.63
2022-12-24T03:00:49.738Z,101211.38
2022-12-24T03:03:34.760Z,101225.69
2022-12-24T03:06:17.605Z,101226.50
2022-12-24T03:09:00.965Z,101245.75
2022-12-24T03:11:41.369Z,101256.84
2022-12-24T03:14:21.171Z,101265.50
2022-12-24T03:17:01.310Z,101283.19
2022-12-24T03:19:42.402Z,101293.75
2022-12-24T03:22:24.484Z,101302.28
2022-12-24T03:25:05.779Z,101302.41
2022-12-24T03:27:46.622Z,101304.94
2022-12-24T03:30:26.546Z,101304.69
2022-12-24T03:33:06.288Z,101311.06
2022-12-24T03:35:44.180Z,101331.16
2022-12-24T03:38:26.241Z,101332.72
2022-12-24T03:41:07.565Z,101338.59
2022-12-24T03:43:48.648Z,101355.44
2022-12-24T03:46:28.472Z,101355.34
2022-12-24T03:49:08.269Z,101356.16
2022-12-24T03:51:48.085Z,101360.75
2022-12-24T03:54:29.924Z,101366.53
2022-12-24T03:57:10.888Z,101379.66
2022-12-24T03:59:55.703Z,101382.19
2022-12-24T04:02:35.398Z,101390.97
2022-12-24T04:05:16.141Z,101400.97
2022-12-24T04:07:56.559Z,101408.91
2022-12-24T04:10:36.358Z,101411.53
2022-12-24T04:13:16.139Z,101421.03
2022-12-24T04:15:59.590Z,101428.03
2022-12-24T04:18:40.819Z,101430.78
2022-12-24T04:21:21.991Z,101436.09
2022-12-24T04:24:01.787Z,101437.16
2022-12-24T04:26:41.795Z,101436.09
2022-12-24T04:29:23.048Z,101450.28
2022-12-24T04:32:03.027Z,101445.19
2022-12-24T04:34:44.209Z,101453.91
2022-12-24T04:37:24.004Z,101464.47
2022-12-24T04:40:03.885Z,101462.78
2022-12-24T04:42:43.605Z,101479.59
2022-12-24T04:45:25.072Z,101484.91
2022-12-24T04:48:06.026Z,101485.97
2022-12-24T04:50:46.250Z,101498.97
2022-12-24T04:53:26.066Z,101512.31
2022-12-24T04:56:04.215Z,101513.41
2022-12-24T04:58:44.088Z,101524.09
2022-12-24T05:01:24.936Z,101531.44
2022-12-24T05:04:07.855Z,101540.72
2022-12-24T05:06:48.311Z,101551.41
2022-12-24T05:09:28.087Z,101561.16
2022-12-24T05:12:10.255Z,101578.00
2022-12-24T05:14:50.909Z,101596.31
2022-12-24T05:17:30.730Z,101607.13
2022-12-24T05:20:10.732Z,101625.63
2022-12-24T05:23:09.029Z,101627.56
2022-12-24T05:26:06.968Z,101632.84
2022-12-24T05:28:46.764Z,101646.09
2022-12-24T05:31:27.321Z,101664.38
2022-12-24T05:34:08.173Z,101667.03
2022-12-24T05:36:49.385Z,101668.94
2022-12-24T05:39:29.176Z,101669.28
2022-12-24T05:42:09.094Z,101672.56
2022-12-24T05:44:46.923Z,101678.06
2022-12-24T05:47:28.991Z,101675.53
2022-12-24T05:50:12.183Z,101684.44
2022-12-24T05:52:51.127Z,101679.44
2022-12-24T05:55:33.240Z,101699.66
2022-12-24T05:58:14.935Z,101704.22
2022-12-24T06:00:55.359Z,101703.50
2022-12-24T06:03:35.594Z,101710.47
2022-12-24T06:06:19.126Z,101711.19
2022-12-24T06:08:59.890Z,101720.09
2022-12-24T06:11:39.700Z,101723.69
2022-12-24T06:14:21.238Z,101737.66
2022-12-24T06:17:00.909Z,101739.47
2022-12-24T06:19:38.804Z,101739.56
2022-12-24T06:22:18.895Z,101751.75
2022-12-24T06:25:00.745Z,101759.69
2022-12-24T06:27:43.772Z,101763.28
2022-12-24T06:30:26.739Z,101761.59
2022-12-24T06:33:07.785Z,101773.75
2022-12-24T06:35:47.569Z,101767.94
2022-12-24T06:38:31.767Z,101788.16
2022-12-24T06:41:13.951Z,101796.09
2022-12-24T06:43:55.055Z,101799.69
2022-12-24T06:46:34.808Z,101811.03
2022-12-24T06:49:12.872Z,101809.22
2022-12-24T06:51:54.767Z,101807.63
2022-12-24T06:54:35.801Z,101814.84
2022-12-24T06:57:17.590Z,101816.75
2022-12-24T06:59:58.744Z,101828.06
2022-12-24T07:02:40.149Z,101826.81
2022-12-24T07:05:21.817Z,101831.56
2022-12-24T07:08:02.813Z,101826.69
2022-12-24T07:10:40.775Z,101838.22
2022-12-24T07:13:20.831Z,101835.91
2022-12-24T07:16:03.498Z,101839.41
2022-12-24T07:18:43.751Z,101835.78
2022-12-24T07:21:25.504Z,101837.59
2022-12-24T07:24:06.942Z,101849.34
2022-12-24T07:26:49.939Z,101847.53
2022-12-24T07:29:30.883Z,101842.25
2022-12-24T07:32:10.827Z,101846.13
2022-12-24T07:34:48.617Z,101852.28
2022-12-24T07:37:28.429Z,101856.81
2022-12-24T07:40:09.659Z,101858.63
2022-12-24T07:42:49.957Z,101857.03
2022-12-24T07:45:29.418Z,101873.22
2022-12-24T07:48:11.567Z,101867.19
2022-12-24T07:50:52.738Z,101870.13
2022-12-24T07:53:35.977Z,101865.03
2022-12-24T07:56:18.962Z,101874.75
2022-12-24T07:59:00.048Z,101877.50
2022-12-24T08:01:42.079Z,101869.47
2022-12-24T08:04:22.768Z,101879.31
2022-12-24T08:07:02.584Z,101879.63
2022-12-24T08:09:45.892Z,101881.09
2022-12-24T08:12:25.128Z,101876.66
2022-12-24T08:15:05.645Z,101878.38
2022-12-24T08:17:46.629Z,101886.19
2022-12-24T08:20:26.484Z,101886.94
2022-12-24T08:23:06.285Z,101885.81
2022-12-24T08:25:46.493Z,101899.75
2022-12-24T08:28:27.447Z,101915.44
2022-12-24T08:31:07.399Z,101919.56
2022-12-24T08:33:49.058Z,101923.69
2022-12-24T08:36:32.201Z,101931.41
2022-12-24T08:39:13.080Z,101936.69
2022-12-24T08:41:54.849Z,101947.00
2022-12-24T08:44:35.881Z,101945.72
2022-12-24T08:47:17.683Z,101963.09
2022-12-24T08:49:58.700Z,101967.31
2022-12-24T08:52:38.565Z,101965.53
2022-12-24T08:55:18.470Z,101967.31
2022-12-24T08:58:00.167Z,101971.03
2022-12-24T09:00:44.238Z,101977.25
2022-12-24T09:03:27.815Z,101990.38
2022-12-24T09:06:11.076Z,101992.09
2022-12-24T09:08:50.087Z,101989.53
2022-12-24T09:11:31.095Z,101986.78
2022-12-24T09:14:11.376Z,102002.50
2022-12-24T09:16:53.210Z,102010.22
2022-12-24T09:19:34.198Z,102003.88
2022-12-24T09:22:14.220Z,102016.91
2022-12-24T09:24:55.971Z,102014.88
2022-12-24T09:27:36.803Z,102023.66
2022-12-24T09:30:37.490Z,102027.06
2022-12-24T09:33:18.913Z,102041.59
2022-12-24T09:36:00.224Z,102047.63
2022-12-24T09:38:41.029Z,102047.22
2022-12-24T09:41:25.734Z,102063.56
2022-12-24T09:44:09.217Z,102075.31
2022-12-24T09:46:49.108Z,102078.59
2022-12-24T09:49:32.284Z,102094.94
2022-12-24T09:52:16.307Z,102096.25
2022-12-24T09:54:57.565Z,102106.25
2022-12-24T09:57:38.276Z,102112.81
2022-12-24T10:00:20.648Z,102121.06
2022-12-24T10:03:00.738Z,102128.41
2022-12-24T10:05:42.691Z,102139.31
2022-12-24T10:08:26.769Z,102136.38
2022-12-24T10:11:07.452Z,102131.28
2022-12-24T10:13:58.394Z,102134.47
2022-12-24T10:16:44.023Z,102128.63
2022-12-24T10:19:29.911Z,102126.84
2022-12-24T10:22:13.477Z,102132.66
2022-12-24T10:24:55.450Z,102125.56
2022-12-24T10:27:37.108Z,102124.81
2022-12-24T10:30:19.605Z,102116.41
2022-12-24T10:33:00.154Z,102109.63
2022-12-24T10:35:43.881Z,102108.31
2022-12-24T10:38:26.678Z,102104.72
2022-12-24T10:41:08.174Z,102092.41
2022-12-24T10:43:47.123Z,102082.41
2022-12-24T10:46:30.381Z,102072.38
2022-12-24T10:49:13.326Z,102060.56
2022-12-24T10:51:57.728Z,102055.50
2022-12-24T10:54:39.812Z,102047.66
2022-12-24T10:57:26.401Z,102049.22
2022-12-24T11:00:08.160Z,102039.47
2022-12-24T11:02:49.417Z,102030.44
2022-12-24T11:05:32.311Z,102035.47
2022-12-24T11:08:17.931Z,102029.81
2022-12-24T11:10:59.810Z,102035.50
2022-12-24T11:13:44.408Z,102039.00
2022-12-24T11:16:26.183Z,102030.94
2022-12-24T11:19:07.428Z,102037.94
2022-12-24T11:21:47.894Z,102042.28
2022-12-24T11:24:28.530Z,102036.97
2022-12-24T11:27:44.223Z,102038.16
2022-12-24T11:30:26.169Z,102032.97
2022-12-24T11:33:22.656Z,102040.81
2022-12-24T11:36:03.858Z,102032.34
2022-12-24T11:38:44.368Z,102037.03
2022-12-24T11:41:26.225Z,102029.09
2022-12-24T11:44:09.983Z,102031.94
2022-12-24T11:46:52.273Z,102019.97
2022-12-24T11:49:33.254Z,102007.16
2022-12-24T11:52:22.861Z,102001.34
2022-12-24T11:55:08.964Z,101989.91
2022-12-24T11:57:57.348Z,101998.69
2022-12-24T12:00:37.997Z,101992.56
2022-12-24T12:03:24.701Z,102002.72
2022-12-24T12:06:07.962Z,102007.41
2022-12-24T12:08:50.642Z,102004.75
2022-12-24T12:11:31.645Z,102006.69
2022-12-24T12:14:12.283Z,102007.53
2022-12-24T12:17:01.750Z,102015.47
2022-12-24T12:19:42.005Z,102017.28
2022-12-24T12:22:24.460Z,102025.56
2022-12-24T12:25:05.436Z,102029.91
2022-12-24T12:27:44.923Z,102043.28
2022-12-24T12:30:24.289Z,102055.38
2022-12-24T12:33:05.993Z,102053.56
2022-12-24T12:35:45.925Z,102073.91
2022-12-24T12:38:24.449Z,102080.28
2022-12-24T12:41:05.290Z,102092.16
2022-12-24T12:43:56.241Z,102093.09
2022-12-24T12:46:38.960Z,102094.81
2022-12-24T12:49:23.144Z,102096.28
2022-12-24T12:52:03.504Z,102092.66
2022-12-24T12:54:55.022Z,102089.81
2022-12-24T12:57:34.509Z,102096.72
2022-12-24T13:00:13.370Z,102099.03
2022-12-24T13:03:01.221Z,102097.97
2022-12-24T13:05:55.641Z,102104.84
2022-12-24T13:08:43.502Z,102100.16
2022-12-24T13:11:27.781Z,102108.44
2022-12-24T13:14:16.304Z,102120.41
2022-12-24T13:17:06.867Z,102118.25
2022-12-24T13:19:53.377Z,102121.69
2022-12-24T13:22:35.805Z,102148.09
2022-12-24T13:25:20.749Z,102173.03
2022-12-24T13:28:15.051Z,102152.06
2022-12-24T13:31:15.710Z,102123.75
2022-12-24T13:33:54.410Z,102077.63
2022-12-24T13:36:52.096Z,102065.22
2022-12-24T13:39:32.350Z,102026.44
2022-12-24T13:42:13.282Z,102006.19
2022-12-24T13:44:51.248Z,101990.13
2022-12-24T13:47:46.792Z,101991.16
2022-12-24T13:50:29.986Z,101983.97
2022-12-24T13:53:22.256Z,101978.88
2022-12-24T13:56:05.505Z,101980.91
2022-12-24T13:58:46.819Z,101973.66
2022-12-24T14:01:34.972Z,102007.34
2022-12-24T14:04:21.942Z,102001.44
2022-12-24T14:07:02.493Z,102012.19
2022-12-24T14:09:43.142Z,102022.06
2022-12-24T14:12:51.893Z,102031.78
2022-12-24T14:16:05.541Z,102034.88
2022-12-24T14:18:47.699Z,102053.19
2022-12-24T14:21:29.725Z,102069.91
2022-12-24T14:24:13.404Z,102074.56
2022-12-24T14:26:54.890Z,102077.31
2022-12-24T14:29:38.507Z,102080.09
2022-12-24T14:32:20.597Z,102079.72
2022-12-24T14:35:08.845Z,102090.53
2022-12-24T14:37:49.829Z,102086.28
2022-12-24T14:40:31.098Z,102100.56
2022-12-24T14:43:13.134Z,102102.69
2022-12-24T14:45:57.787Z,102107.59
2022-12-24T14:48:38.577Z,102115.75
2022-12-24T14:51:22.089Z,102116.06
2022-12-24T14:54:14.185Z,102122.47
2022-12-24T14:57:08.794Z,102129.84
2022-12-24T14:59:50.229Z,102129.31
2022-12-24T15:02:41.831Z,102135.75
2022-12-24T15:05:20.731Z,102141.13
2022-12-24T15:08:00.201Z,102143.19
2022-12-24T15:10:43.851Z,102150.38
2022-12-24T15:13:27.452Z,102146.25
2022-12-24T15:16:09.007Z,102154.28
2022-12-24T15:18:49.962Z,102160.81
2022-12-24T15:21:31.004Z,102160.03
2022-12-24T15:24:25.163Z,102168.34
2022-12-24T15:27:13.870Z,102176.56
2022-12-24T15:29:59.764Z,102175.06
2022-12-24T15:32:40.031Z,102178.75
2022-12-24T15:35:50.222Z,102193.81
2022-12-24T15:38:32.692Z,102185.31
2022-12-24T15:41:16.278Z,102197.78
2022-12-24T15:44:00.189Z,102207.31
2022-12-24T15:46:40.849Z,102221.09
2022-12-24T15:49:27.877Z,102221.94
2022-12-24T15:52:09.023Z,102228.19
2022-12-24T15:54:55.548Z,102228.38
2022-12-24T15:57:37.224Z,102236.31
2022-12-24T16:00:21.515Z,102239.69
2022-12-24T16:03:18.064Z,102243.28
2022-12-24T16:06:02.680Z,102237.16
2022-12-24T16:08:44.028Z,102252.16
2022-12-24T16:11:25.489Z,102254.06
2022-12-24T16:14:08.229Z,102250.00
2022-12-24T16:16:48.826Z,102251.78
2022-12-24T16:19:32.894Z,102260.06
2022-12-24T16:22:35.938Z,102264.00
2022-12-24T16:25:26.028Z,102257.78
2022-12-24T16:28:12.066Z,102260.59
2022-12-24T16:30:55.582Z,102259.84
2022-12-24T16:33:36.293Z,102267.78
2022-12-24T16:36:16.596Z,102264.56
2022-12-24T16:39:17.164Z,102269.84
2022-12-24T16:42:16.584Z,102272.63
2022-12-24T16:44:55.693Z,102262.34
2022-12-24T16:47:42.376Z,102275.81
2022-12-24T16:50:26.000Z,102280.44
2022-12-24T16:53:06.328Z,102278.03
2022-12-24T16:55:47.483Z,102272.09
2022-12-24T16:58:27.433Z,102271.69
2022-12-24T17:01:10.729Z,102277.81
2022-12-24T17:03:51.844Z,102272.63
2022-12-24T17:06:31.005Z,102271.91
2022-12-24T17:09:09.920Z,102275.50
2022-12-24T17:11:49.631Z,102282.00
2022-12-24T17:14:31.495Z,102278.66
2022-12-24T17:17:17.823Z,102290.16
2022-12-24T17:19:58.827Z,102276.53
2022-12-24T17:22:38.456Z,102280.47
2022-12-24T17:25:20.434Z,102279.88
2022-12-24T17:27:59.388Z,102283.63
2022-12-24T17:30:41.400Z,102278.47
2022-12-24T17:33:22.610Z,102271.84
2022-12-24T17:36:02.271Z,102274.50
2022-12-24T17:38:42.075Z,102266.84
2022-12-24T17:41:22.444Z,102269.69
2022-12-24T17:44:04.710Z,102272.47
2022-12-24T17:46:47.120Z,102270.19
2022-12-24T17:49:30.770Z,102266.19
2022-12-24T17:52:08.847Z,102267.16
2022-12-24T17:54:49.143Z,102267.41
2022-12-24T17:57:30.490Z,102260.78
2022-12-24T18:00:13.217Z,102263.63
2022-12-24T18:02:53.260Z,102269.06
2022-12-24T18:05:34.212Z,102276.06
2022-12-24T18:08:16.891Z,102278.78
2022-12-24T18:10:57.393Z,102281.56
2022-12-24T18:13:39.268Z,102281.91
2022-12-24T18:16:21.761Z,102279.44
2022-12-24T18:19:01.620Z,102282.28
2022-12-24T18:21:41.416Z,102290.28
2022-12-24T18:24:21.300Z,102285.94
2022-12-24T18:27:02.903Z,102290.19
2022-12-24T18:29:44.202Z,102294.53
2022-12-24T18:32:23.851Z,102296.94
2022-12-24T18:35:06.118Z,102298.66
2022-12-24T18:37:46.782Z,102293.47
2022-12-24T18:40:26.562Z,102298.94
2022-12-24T18:43:06.260Z,102309.75
2022-12-24T18:45:46.295Z,102316.19
2022-12-24T18:48:27.460Z,102317.28
2022-12-24T18:51:07.733Z,102310.50
2022-12-24T18:53:46.879Z,102311.38
2022-12-24T18:56:28.916Z,102307.25
2022-12-24T18:59:11.907Z,102306.41
2022-12-24T19:01:53.082Z,102299.19
2022-12-24T19:04:34.598Z,102294.78
2022-12-24T19:07:17.759Z,102291.97
2022-12-24T19:10:00.735Z,102291.97
2022-12-24T19:12:39.906Z,102295.25
2022-12-24T19:15:18.229Z,102303.16
2022-12-24T19:17:58.211Z,102306.41
2022-12-24T19:20:40.675Z,102306.41
2022-12-24T19:23:19.182Z,102308.28
2022-12-24T19:25:59.191Z,102318.91
2022-12-24T19:28:39.034Z,102317.41
2022-12-24T19:31:21.380Z,102327.34
2022-12-24T19:34:02.083Z,102330.91
2022-12-24T19:36:43.336Z,102340.03
2022-12-24T19:39:31.580Z,102334.97
2022-12-24T19:42:14.696Z,102336.94
2022-12-24T19:44:55.533Z,102342.44
2022-12-24T19:47:37.238Z,102340.78
2022-12-24T19:50:18.946Z,102338.53
2022-12-24T19:52:59.972Z,102335.66
2022-12-24T19:55:42.584Z,102343.53
2022-12-24T19:58:22.495Z,102349.00
2022-12-24T20:01:12.765Z,102344.47
2022-12-24T20:03:53.272Z,102340.06
2022-12-24T20:06:33.855Z,102337.50
2022-12-24T20:09:16.472Z,102339.06
2022-12-24T20:11:57.512Z,102340.75
2022-12-24T20:14:37.311Z,102340.75
2022-12-24T20:17:17.232Z,102352.16
2022-12-24T20:19:56.902Z,102352.31
2022-12-24T20:22:36.748Z,102356.97
2022-12-24T20:25:16.681Z,102365.97
2022-12-24T20:27:56.411Z,102373.22
2022-12-24T20:30:37.734Z,102376.88
2022-12-24T20:33:19.181Z,102373.56
2022-12-24T20:35:57.093Z,102372.94
2022-12-24T20:38:37.237Z,102369.03
2022-12-24T20:41:17.504Z,102387.56
2022-12-24T20:43:59.475Z,102390.28
2022-12-24T20:46:37.965Z,102377.28
2022-12-24T20:49:18.008Z,102377.63
2022-12-24T20:51:59.824Z,102391.09
2022-12-24T20:54:40.845Z,102392.38
2022-12-24T20:57:25.938Z,102393.63
2022-12-24T21:00:14.714Z,102401.00
2022-12-24T21:02:54.873Z,102402.06
2022-12-24T21:05:36.059Z,102394.44
2022-12-24T21:08:15.986Z,102394.72
2022-12-24T21:11:11.777Z,102397.53
2022-12-24T21:13:52.219Z,102389.81
2022-12-24T21:16:34.511Z,102390.94
2022-12-24T21:19:15.390Z,102386.88
2022-12-24T21:22:16.516Z,102376.59
2022-12-24T21:24:56.317Z,102381.88
2022-12-24T21:27:34.259Z,102374.13
2022-12-24T21:30:16.451Z,102370.00
2022-12-24T21:32:57.331Z,102363.88
2022-12-24T21:35:37.125Z,102357.91
2022-12-24T21:38:15.212Z,102349.59
2022-12-24T21:41:02.014Z,102360.25
2022-12-24T21:43:43.287Z,102358.59
2022-12-24T21:46:25.712Z,102352.72
2022-12-24T21:49:23.377Z,102361.44
2022-12-24T21:52:03.308Z,102369.31
2022-12-24T21:54:44.596Z,102366.00
2022-12-24T21:57:41.300Z,102368.03
2022-12-24T22:00:30.402Z,102376.88
2022-12-24T22:03:11.267Z,102375.38
2022-12-24T22:05:51.040Z,102370.16
2022-12-24T22:08:50.627Z,102365.88
2022-12-24T22:11:54.357Z,102365.81
2022-12-24T22:14:35.242Z,102365.03
2022-12-24T22:17:19.774Z,102366.84
2022-12-24T22:20:04.962Z,102368.69
2022-12-24T22:22:45.887Z,102359.22
2022-12-24T22:25:25.675Z,102365.50
2022-12-24T22:28:05.599Z,102367.31
2022-12-24T22:30:45.307Z,102365.75
2022-12-24T22:33:25.914Z,102360.63
2022-12-24T22:36:06.832Z,102348.47
2022-12-24T22:38:47.940Z,102360.09
2022-12-24T22:41:29.952Z,102359.25
2022-12-24T22:44:12.711Z,102355.97
2022-12-24T22:46:53.747Z,102353.59
2022-12-24T22:49:31.711Z,102354.63
2022-12-24T22:52:11.750Z,102352.88
2022-12-24T22:54:51.580Z,102339.16
2022-12-24T22:57:29.490Z,102334.09
2022-12-24T23:00:11.027Z,102338.66
2022-12-24T23:02:51.075Z,102338.81
2022-12-24T23:05:30.813Z,102343.38
2022-12-24T23:08:11.284Z,102343.56
2022-12-24T23:10:55.654Z,102344.59
2022-12-24T23:13:54.776Z,102337.84
2022-12-24T23:16:35.637Z,102335.34
2022-12-24T23:19:17.535Z,102331.25
2022-12-24T23:21:59.444Z,102347.97
2022-12-24T23:24:41.313Z,102342.97
2022-12-24T23:27:23.627Z,102327.47
2022-12-24T23:30:04.496Z,102331.97
2022-12-24T23:32:45.671Z,102330.34
2022-12-24T23:35:25.534Z,102340.06
2022-12-24T23:38:05.292Z,102328.84
2022-12-24T23:40:43.250Z,102314.22
2022-12-24T23:43:23.297Z,102299.78
2022-12-24T23:46:04.338Z,102286.84
2022-12-24T23:48:45.726Z,102286.06
2022-12-24T23:51:26.392Z,102283.63
2022-12-24T23:54:06.453Z,102294.09
2022-12-24T23:56:45.313Z,102298.69
2022-12-24T23:59:25.405Z,102316.22
